sensor_id;sensor_type;location;lat;lon;timestamp;temperature;humidity
17341;DHT22;8788;49.930;8.660;2023-04-01T00:01:46;11.70;99.90
17341;DHT22;8788;49.930;8.660;2023-04-01T00:04:13;11.70;99.90
17341;DHT22;8788;49.930;8.660;2023-04-01T00:06:41;11.70;99.90
17341;DHT22;8788;49.930;8.660;2023-04-01T00:09:08;11.60;99.90
17341;DHT22;8788;49.930;8.660;2023-04-01T00:11:35;11.60;99.90
17341;DHT22;8788;49.930;8.660;2023-04-01T00:14:02;11.60;99.90
17341;DHT22;8788;49.930;8.660;2023-04-01T00:16:29;11.60;99.90
17341;DHT22;8788;49.930;8.660;2023-04-01T00:18:58;11.60;99.90
17341;DHT22;8788;49.930;8.660;2023-04-01T00:21:25;11.60;99.90
17341;DHT22;8788;49.930;8.660;2023-04-01T00:23:52;11.60;99.90
17341;DHT22;8788;49.930;8.660;2023-04-01T00:26:20;11.60;99.90
17341;DHT22;8788;49.930;8.660;2023-04-01T00:28:48;11.60;99.90
17341;DHT22;8788;49.930;8.660;2023-04-01T00:31:15;11.60;99.90
17341;DHT22;8788;49.930;8.660;2023-04-01T00:33:42;11.60;99.90
17341;DHT22;8788;49.930;8.660;2023-04-01T00:36:12;11.60;99.90
17341;DHT22;8788;49.930;8.660;2023-04-01T00:38:40;11.60;99.90
17341;DHT22;8788;49.930;8.660;2023-04-01T00:41:09;11.60;99.90
17341;DHT22;8788;49.930;8.660;2023-04-01T00:43:39;11.60;99.90
17341;DHT22;8788;49.930;8.660;2023-04-01T00:46:07;11.60;99.90
17341;DHT22;8788;49.930;8.660;2023-04-01T00:48:36;11.60;99.90
17341;DHT22;8788;49.930;8.660;2023-04-01T00:51:07;11.60;99.90
17341;DHT22;8788;49.930;8.660;2023-04-01T00:53:38;11.60;99.90
17341;DHT22;8788;49.930;8.660;2023-04-01T00:56:12;11.60;99.90
17341;DHT22;8788;49.930;8.660;2023-04-01T00:58:44;11.50;99.90
17341;DHT22;8788;49.930;8.660;2023-04-01T01:01:12;11.60;99.90
17341;DHT22;8788;49.930;8.660;2023-04-01T01:03:40;11.50;99.90
17341;DHT22;8788;49.930;8.660;2023-04-01T01:06:10;11.50;99.90
17341;DHT22;8788;49.930;8.660;2023-04-01T01:08:58;11.50;99.90
17341;DHT22;8788;49.930;8.660;2023-04-01T01:11:32;11.60;99.90
17341;DHT22;8788;49.930;8.660;2023-04-01T01:14:09;11.60;99.90
17341;DHT22;8788;49.930;8.660;2023-04-01T01:16:42;11.60;99.90
17341;DHT22;8788;49.930;8.660;2023-04-01T01:19:23;11.60;99.90
17341;DHT22;8788;49.930;8.660;2023-04-01T01:25:09;11.60;99.90
17341;DHT22;8788;49.930;8.660;2023-04-01T01:27:38;11.60;99.90
17341;DHT22;8788;49.930;8.660;2023-04-01T01:30:27;11.60;99.90
17341;DHT22;8788;49.930;8.660;2023-04-01T01:33:13;11.60;99.90
17341;DHT22;8788;49.930;8.660;2023-04-01T01:35:46;11.60;99.90
17341;DHT22;8788;49.930;8.660;2023-04-01T01:38:21;11.60;99.90
17341;DHT22;8788;49.930;8.660;2023-04-01T01:40:56;11.60;99.90
17341;DHT22;8788;49.930;8.660;2023-04-01T01:43:26;11.60;99.90
17341;DHT22;8788;49.930;8.660;2023-04-01T01:45:58;11.60;99.90
17341;DHT22;8788;49.930;8.660;2023-04-01T01:48:28;11.60;99.90
17341;DHT22;8788;49.930;8.660;2023-04-01T01:50:57;11.70;99.90
17341;DHT22;8788;49.930;8.660;2023-04-01T01:53:25;11.60;99.90
17341;DHT22;8788;49.930;8.660;2023-04-01T01:55:52;11.60;99.90
17341;DHT22;8788;49.930;8.660;2023-04-01T01:58:23;11.60;99.90
17341;DHT22;8788;49.930;8.660;2023-04-01T02:00:54;11.60;99.90
17341;DHT22;8788;49.930;8.660;2023-04-01T02:03:25;11.60;99.90
17341;DHT22;8788;49.930;8.660;2023-04-01T02:05:57;11.60;99.90
17341;DHT22;8788;49.930;8.660;2023-04-01T02:08:27;11.60;99.90
17341;DHT22;8788;49.930;8.660;2023-04-01T02:10:59;11.60;99.90
17341;DHT22;8788;49.930;8.660;2023-04-01T02:13:37;11.60;99.90
17341;DHT22;8788;49.930;8.660;2023-04-01T02:16:09;11.60;99.90
17341;DHT22;8788;49.930;8.660;2023-04-01T02:18:39;11.60;99.90
17341;DHT22;8788;49.930;8.660;2023-04-01T02:21:09;11.60;99.90
17341;DHT22;8788;49.930;8.660;2023-04-01T02:23:38;11.60;99.90
17341;DHT22;8788;49.930;8.660;2023-04-01T02:26:07;11.50;99.90
17341;DHT22;8788;49.930;8.660;2023-04-01T02:28:37;11.50;99.90
17341;DHT22;8788;49.930;8.660;2023-04-01T02:31:06;11.50;99.90
17341;DHT22;8788;49.930;8.660;2023-04-01T02:33:36;11.50;99.90
17341;DHT22;8788;49.930;8.660;2023-04-01T02:36:04;11.50;99.90
17341;DHT22;8788;49.930;8.660;2023-04-01T02:38:35;11.50;99.90
17341;DHT22;8788;49.930;8.660;2023-04-01T02:41:03;11.40;99.90
17341;DHT22;8788;49.930;8.660;2023-04-01T02:43:31;11.40;99.90
17341;DHT22;8788;49.930;8.660;2023-04-01T02:45:58;11.30;99.90
17341;DHT22;8788;49.930;8.660;2023-04-01T02:48:25;11.30;99.90
17341;DHT22;8788;49.930;8.660;2023-04-01T02:50:53;11.40;99.90
17341;DHT22;8788;49.930;8.660;2023-04-01T02:53:20;11.40;99.90
17341;DHT22;8788;49.930;8.660;2023-04-01T02:55:48;11.30;99.90
17341;DHT22;8788;49.930;8.660;2023-04-01T02:58:17;11.30;99.90
17341;DHT22;8788;49.930;8.660;2023-04-01T03:00:45;11.30;99.90
17341;DHT22;8788;49.930;8.660;2023-04-01T03:03:12;11.30;99.90
17341;DHT22;8788;49.930;8.660;2023-04-01T03:05:39;11.20;99.90
17341;DHT22;8788;49.930;8.660;2023-04-01T03:08:06;11.30;99.90
17341;DHT22;8788;49.930;8.660;2023-04-01T03:10:34;11.30;99.90
17341;DHT22;8788;49.930;8.660;2023-04-01T03:13:02;11.20;99.90
17341;DHT22;8788;49.930;8.660;2023-04-01T03:15:29;11.20;99.90
17341;DHT22;8788;49.930;8.660;2023-04-01T03:17:57;11.20;99.90
17341;DHT22;8788;49.930;8.660;2023-04-01T03:20:24;11.20;99.90
17341;DHT22;8788;49.930;8.660;2023-04-01T03:22:51;11.20;99.90
17341;DHT22;8788;49.930;8.660;2023-04-01T03:25:18;11.20;99.90
17341;DHT22;8788;49.930;8.660;2023-04-01T03:27:45;11.20;99.90
17341;DHT22;8788;49.930;8.660;2023-04-01T03:30:14;11.20;99.90
17341;DHT22;8788;49.930;8.660;2023-04-01T03:32:48;11.30;99.90
17341;DHT22;8788;49.930;8.660;2023-04-01T03:35:15;11.30;99.90
17341;DHT22;8788;49.930;8.660;2023-04-01T03:37:43;11.30;99.90
17341;DHT22;8788;49.930;8.660;2023-04-01T03:40:11;11.20;99.90
17341;DHT22;8788;49.930;8.660;2023-04-01T03:42:38;11.20;99.90
17341;DHT22;8788;49.930;8.660;2023-04-01T03:45:06;11.30;99.90
17341;DHT22;8788;49.930;8.660;2023-04-01T03:47:35;11.30;99.90
17341;DHT22;8788;49.930;8.660;2023-04-01T03:50:02;11.20;99.90
17341;DHT22;8788;49.930;8.660;2023-04-01T03:52:29;11.20;99.90
17341;DHT22;8788;49.930;8.660;2023-04-01T03:54:56;11.20;99.90
17341;DHT22;8788;49.930;8.660;2023-04-01T03:57:23;11.30;99.90
17341;DHT22;8788;49.930;8.660;2023-04-01T03:59:51;11.30;99.90
17341;DHT22;8788;49.930;8.660;2023-04-01T04:02:18;11.20;99.90
17341;DHT22;8788;49.930;8.660;2023-04-01T04:04:47;11.30;99.90
17341;DHT22;8788;49.930;8.660;2023-04-01T04:07:15;11.30;99.90
17341;DHT22;8788;49.930;8.660;2023-04-01T04:09:58;11.30;99.90
17341;DHT22;8788;49.930;8.660;2023-04-01T04:12:25;11.30;99.90
17341;DHT22;8788;49.930;8.660;2023-04-01T04:14:53;11.20;99.90
17341;DHT22;8788;49.930;8.660;2023-04-01T04:17:20;11.20;99.90
17341;DHT22;8788;49.930;8.660;2023-04-01T04:19:49;11.20;99.90
17341;DHT22;8788;49.930;8.660;2023-04-01T04:22:16;11.20;99.90
17341;DHT22;8788;49.930;8.660;2023-04-01T04:24:43;11.20;99.90
17341;DHT22;8788;49.930;8.660;2023-04-01T04:27:12;11.20;99.90
17341;DHT22;8788;49.930;8.660;2023-04-01T04:29:52;11.20;99.90
17341;DHT22;8788;49.930;8.660;2023-04-01T04:32:19;11.30;99.90
17341;DHT22;8788;49.930;8.660;2023-04-01T04:34:46;11.30;99.90
17341;DHT22;8788;49.930;8.660;2023-04-01T04:37:14;11.30;99.90
17341;DHT22;8788;49.930;8.660;2023-04-01T04:39:42;11.30;99.90
17341;DHT22;8788;49.930;8.660;2023-04-01T04:42:09;11.30;99.90
17341;DHT22;8788;49.930;8.660;2023-04-01T04:44:36;11.30;99.90
17341;DHT22;8788;49.930;8.660;2023-04-01T04:47:03;11.30;99.90
17341;DHT22;8788;49.930;8.660;2023-04-01T04:49:30;11.30;99.90
17341;DHT22;8788;49.930;8.660;2023-04-01T04:51:59;11.30;99.90
17341;DHT22;8788;49.930;8.660;2023-04-01T04:54:29;11.30;99.90
17341;DHT22;8788;49.930;8.660;2023-04-01T04:56:58;11.40;99.90
17341;DHT22;8788;49.930;8.660;2023-04-01T04:59:28;11.30;99.90
17341;DHT22;8788;49.930;8.660;2023-04-01T05:02:03;11.40;99.90
17341;DHT22;8788;49.930;8.660;2023-04-01T05:04:34;11.40;99.90
17341;DHT22;8788;49.930;8.660;2023-04-01T05:07:02;11.40;99.90
17341;DHT22;8788;49.930;8.660;2023-04-01T05:09:32;11.40;99.90
17341;DHT22;8788;49.930;8.660;2023-04-01T05:12:00;11.40;99.90
17341;DHT22;8788;49.930;8.660;2023-04-01T05:14:33;11.40;99.90
17341;DHT22;8788;49.930;8.660;2023-04-01T05:17:09;11.30;99.90
17341;DHT22;8788;49.930;8.660;2023-04-01T05:19:36;11.40;99.90
17341;DHT22;8788;49.930;8.660;2023-04-01T05:22:04;11.30;99.90
17341;DHT22;8788;49.930;8.660;2023-04-01T05:24:33;11.30;99.90
17341;DHT22;8788;49.930;8.660;2023-04-01T05:27:00;11.30;99.90
17341;DHT22;8788;49.930;8.660;2023-04-01T05:29:28;11.30;99.90
17341;DHT22;8788;49.930;8.660;2023-04-01T05:32:03;11.30;99.90
17341;DHT22;8788;49.930;8.660;2023-04-01T05:34:30;11.30;99.90
17341;DHT22;8788;49.930;8.660;2023-04-01T05:36:58;11.40;99.90
17341;DHT22;8788;49.930;8.660;2023-04-01T05:39:25;11.30;99.90
17341;DHT22;8788;49.930;8.660;2023-04-01T05:41:53;11.30;99.90
17341;DHT22;8788;49.930;8.660;2023-04-01T05:44:20;11.30;99.90
17341;DHT22;8788;49.930;8.660;2023-04-01T05:46:48;11.30;99.90
17341;DHT22;8788;49.930;8.660;2023-04-01T05:49:25;11.30;99.90
17341;DHT22;8788;49.930;8.660;2023-04-01T05:51:53;11.20;99.90
17341;DHT22;8788;49.930;8.660;2023-04-01T05:54:20;11.20;99.90
17341;DHT22;8788;49.930;8.660;2023-04-01T05:56:47;11.20;99.90
17341;DHT22;8788;49.930;8.660;2023-04-01T05:59:17;11.20;99.90
17341;DHT22;8788;49.930;8.660;2023-04-01T06:01:44;11.20;99.90
17341;DHT22;8788;49.930;8.660;2023-04-01T06:04:15;11.30;99.90
17341;DHT22;8788;49.930;8.660;2023-04-01T06:06:43;11.20;99.90
17341;DHT22;8788;49.930;8.660;2023-04-01T06:09:14;11.30;99.90
17341;DHT22;8788;49.930;8.660;2023-04-01T06:12:22;11.30;99.90
17341;DHT22;8788;49.930;8.660;2023-04-01T06:15:06;11.20;99.90
17341;DHT22;8788;49.930;8.660;2023-04-01T06:17:48;11.20;99.90
17341;DHT22;8788;49.930;8.660;2023-04-01T06:20:26;11.30;99.90
17341;DHT22;8788;49.930;8.660;2023-04-01T06:26:12;11.20;99.90
17341;DHT22;8788;49.930;8.660;2023-04-01T06:31:43;11.30;99.90
17341;DHT22;8788;49.930;8.660;2023-04-01T06:37:26;11.30;99.90
17341;DHT22;8788;49.930;8.660;2023-04-01T06:40:19;11.30;99.90
17341;DHT22;8788;49.930;8.660;2023-04-01T06:43:01;11.30;99.90
17341;DHT22;8788;49.930;8.660;2023-04-01T06:46:13;11.30;99.90
17341;DHT22;8788;49.930;8.660;2023-04-01T06:49:32;11.30;99.90
17341;DHT22;8788;49.930;8.660;2023-04-01T06:52:10;11.30;99.90
17341;DHT22;8788;49.930;8.660;2023-04-01T06:55:05;11.30;99.90
17341;DHT22;8788;49.930;8.660;2023-04-01T06:57:58;11.30;99.90
17341;DHT22;8788;49.930;8.660;2023-04-01T07:00:30;11.30;99.90
17341;DHT22;8788;49.930;8.660;2023-04-01T07:03:05;11.30;99.90
17341;DHT22;8788;49.930;8.660;2023-04-01T07:05:35;11.20;99.90
17341;DHT22;8788;49.930;8.660;2023-04-01T07:08:04;11.20;99.90
17341;DHT22;8788;49.930;8.660;2023-04-01T07:10:41;11.20;99.90
17341;DHT22;8788;49.930;8.660;2023-04-01T07:13:32;11.20;99.90
17341;DHT22;8788;49.930;8.660;2023-04-01T07:16:14;11.20;99.90
17341;DHT22;8788;49.930;8.660;2023-04-01T07:18:45;11.20;99.90
17341;DHT22;8788;49.930;8.660;2023-04-01T07:21:23;11.20;99.90
17341;DHT22;8788;49.930;8.660;2023-04-01T07:23:57;11.20;99.90
17341;DHT22;8788;49.930;8.660;2023-04-01T07:26:37;11.30;99.90
17341;DHT22;8788;49.930;8.660;2023-04-01T07:29:08;11.30;99.90
17341;DHT22;8788;49.930;8.660;2023-04-01T07:31:56;11.40;99.90
17341;DHT22;8788;49.930;8.660;2023-04-01T07:34:27;11.40;99.90
17341;DHT22;8788;49.930;8.660;2023-04-01T07:36:59;11.40;99.90
17341;DHT22;8788;49.930;8.660;2023-04-01T07:39:37;11.50;99.90
17341;DHT22;8788;49.930;8.660;2023-04-01T07:42:23;11.50;99.90
17341;DHT22;8788;49.930;8.660;2023-04-01T07:45:01;11.60;99.90
17341;DHT22;8788;49.930;8.660;2023-04-01T07:47:50;11.60;99.90
17341;DHT22;8788;49.930;8.660;2023-04-01T07:50:22;11.60;99.90
17341;DHT22;8788;49.930;8.660;2023-04-01T07:53:01;11.60;99.90
17341;DHT22;8788;49.930;8.660;2023-04-01T07:55:40;11.70;99.90
17341;DHT22;8788;49.930;8.660;2023-04-01T07:58:14;11.70;99.90
17341;DHT22;8788;49.930;8.660;2023-04-01T08:00:48;11.70;99.90
17341;DHT22;8788;49.930;8.660;2023-04-01T08:03:38;11.70;99.90
17341;DHT22;8788;49.930;8.660;2023-04-01T08:06:14;11.70;99.90
17341;DHT22;8788;49.930;8.660;2023-04-01T08:08:56;11.70;99.90
17341;DHT22;8788;49.930;8.660;2023-04-01T08:11:43;11.70;99.90
17341;DHT22;8788;49.930;8.660;2023-04-01T08:14:50;11.80;99.90
17341;DHT22;8788;49.930;8.660;2023-04-01T08:17:45;11.80;99.90
17341;DHT22;8788;49.930;8.660;2023-04-01T08:20:28;11.80;99.90
17341;DHT22;8788;49.930;8.660;2023-04-01T08:23:00;11.80;99.90
17341;DHT22;8788;49.930;8.660;2023-04-01T08:25:37;11.80;99.90
17341;DHT22;8788;49.930;8.660;2023-04-01T08:28:11;11.80;99.90
17341;DHT22;8788;49.930;8.660;2023-04-01T08:30:43;11.80;99.90
17341;DHT22;8788;49.930;8.660;2023-04-01T08:33:15;11.80;99.90
17341;DHT22;8788;49.930;8.660;2023-04-01T08:35:49;11.80;99.90
17341;DHT22;8788;49.930;8.660;2023-04-01T08:38:20;11.70;99.90
17341;DHT22;8788;49.930;8.660;2023-04-01T08:41:14;11.70;99.90
17341;DHT22;8788;49.930;8.660;2023-04-01T08:44:43;11.70;99.90
17341;DHT22;8788;49.930;8.660;2023-04-01T08:47:41;11.60;99.90
17341;DHT22;8788;49.930;8.660;2023-04-01T08:50:26;11.60;99.90
17341;DHT22;8788;49.930;8.660;2023-04-01T08:53:11;11.60;99.90
17341;DHT22;8788;49.930;8.660;2023-04-01T08:56:05;11.50;99.90
17341;DHT22;8788;49.930;8.660;2023-04-01T08:58:54;11.60;99.90
17341;DHT22;8788;49.930;8.660;2023-04-01T09:01:46;11.60;99.90
17341;DHT22;8788;49.930;8.660;2023-04-01T09:04:47;11.60;99.90
17341;DHT22;8788;49.930;8.660;2023-04-01T09:07:33;11.70;99.90
17341;DHT22;8788;49.930;8.660;2023-04-01T09:10:27;11.80;99.90
17341;DHT22;8788;49.930;8.660;2023-04-01T09:13:31;11.80;99.90
17341;DHT22;8788;49.930;8.660;2023-04-01T09:16:13;11.80;99.90
17341;DHT22;8788;49.930;8.660;2023-04-01T09:22:10;11.80;99.90
17341;DHT22;8788;49.930;8.660;2023-04-01T09:27:44;12.00;99.90
17341;DHT22;8788;49.930;8.660;2023-04-01T09:30:48;12.00;99.90
17341;DHT22;8788;49.930;8.660;2023-04-01T09:33:52;12.10;99.90
17341;DHT22;8788;49.930;8.660;2023-04-01T09:36:44;12.10;99.90
17341;DHT22;8788;49.930;8.660;2023-04-01T09:39:35;12.10;99.90
17341;DHT22;8788;49.930;8.660;2023-04-01T09:42:41;12.10;99.90
17341;DHT22;8788;49.930;8.660;2023-04-01T09:45:35;12.00;99.90
17341;DHT22;8788;49.930;8.660;2023-04-01T09:48:19;12.00;99.90
17341;DHT22;8788;49.930;8.660;2023-04-01T09:50:55;12.00;99.90
17341;DHT22;8788;49.930;8.660;2023-04-01T09:53:43;11.90;99.90
17341;DHT22;8788;49.930;8.660;2023-04-01T10:00:27;11.90;99.90
17341;DHT22;8788;49.930;8.660;2023-04-01T10:12:50;11.90;99.90
17341;DHT22;8788;49.930;8.660;2023-04-01T10:18:59;11.90;99.90
17341;DHT22;8788;49.930;8.660;2023-04-01T10:21:59;11.90;99.90
17341;DHT22;8788;49.930;8.660;2023-04-01T10:24:49;11.90;99.90
17341;DHT22;8788;49.930;8.660;2023-04-01T10:27:40;12.10;99.90
17341;DHT22;8788;49.930;8.660;2023-04-01T10:34:10;12.20;99.90
17341;DHT22;8788;49.930;8.660;2023-04-01T10:36:52;12.20;99.90
17341;DHT22;8788;49.930;8.660;2023-04-01T10:39:49;12.20;99.90
17341;DHT22;8788;49.930;8.660;2023-04-01T10:49:17;12.30;99.90
17341;DHT22;8788;49.930;8.660;2023-04-01T10:52:17;12.20;99.90
17341;DHT22;8788;49.930;8.660;2023-04-01T10:55:53;12.20;99.90
17341;DHT22;8788;49.930;8.660;2023-04-01T10:59:08;12.20;99.90
17341;DHT22;8788;49.930;8.660;2023-04-01T11:21:23;12.40;99.90
17341;DHT22;8788;49.930;8.660;2023-04-01T11:24:06;12.50;99.90
17341;DHT22;8788;49.930;8.660;2023-04-01T11:26:53;12.50;99.90
17341;DHT22;8788;49.930;8.660;2023-04-01T11:29:52;12.50;99.90
17341;DHT22;8788;49.930;8.660;2023-04-01T11:32:42;12.50;99.90
17341;DHT22;8788;49.930;8.660;2023-04-01T11:35:57;12.60;99.90
17341;DHT22;8788;49.930;8.660;2023-04-01T11:38:55;12.50;99.90
17341;DHT22;8788;49.930;8.660;2023-04-01T11:41:48;12.50;99.90
17341;DHT22;8788;49.930;8.660;2023-04-01T11:44:41;12.60;99.90
17341;DHT22;8788;49.930;8.660;2023-04-01T11:47:22;12.60;99.90
17341;DHT22;8788;49.930;8.660;2023-04-01T11:50:03;12.70;99.90
17341;DHT22;8788;49.930;8.660;2023-04-01T11:53:04;12.70;99.90
17341;DHT22;8788;49.930;8.660;2023-04-01T11:55:46;12.70;99.90
17341;DHT22;8788;49.930;8.660;2023-04-01T12:01:22;12.60;99.90
17341;DHT22;8788;49.930;8.660;2023-04-01T12:04:19;12.60;99.90
17341;DHT22;8788;49.930;8.660;2023-04-01T12:06:56;12.60;99.90
17341;DHT22;8788;49.930;8.660;2023-04-01T12:09:37;12.50;99.90
17341;DHT22;8788;49.930;8.660;2023-04-01T12:12:16;12.60;99.90
17341;DHT22;8788;49.930;8.660;2023-04-01T12:14:54;12.70;99.90
17341;DHT22;8788;49.930;8.660;2023-04-01T12:17:31;12.70;99.90
17341;DHT22;8788;49.930;8.660;2023-04-01T12:20:16;12.70;99.90
17341;DHT22;8788;49.930;8.660;2023-04-01T12:22:51;12.60;99.90
17341;DHT22;8788;49.930;8.660;2023-04-01T12:25:33;12.60;99.90
17341;DHT22;8788;49.930;8.660;2023-04-01T12:28:10;12.50;99.90
17341;DHT22;8788;49.930;8.660;2023-04-01T12:30:54;12.50;99.90
17341;DHT22;8788;49.930;8.660;2023-04-01T12:33:48;12.40;99.90
17341;DHT22;8788;49.930;8.660;2023-04-01T12:36:36;12.50;99.90
17341;DHT22;8788;49.930;8.660;2023-04-01T12:42:11;12.60;99.90
17341;DHT22;8788;49.930;8.660;2023-04-01T12:44:52;12.70;99.90
17341;DHT22;8788;49.930;8.660;2023-04-01T12:53:30;12.70;99.90
17341;DHT22;8788;49.930;8.660;2023-04-01T12:56:08;12.60;99.90
17341;DHT22;8788;49.930;8.660;2023-04-01T12:59:08;12.60;99.90
17341;DHT22;8788;49.930;8.660;2023-04-01T13:02:07;12.80;99.90
17341;DHT22;8788;49.930;8.660;2023-04-01T13:05:06;12.90;99.90
17341;DHT22;8788;49.930;8.660;2023-04-01T13:07:50;13.00;99.90
17341;DHT22;8788;49.930;8.660;2023-04-01T13:10:27;13.00;99.90
17341;DHT22;8788;49.930;8.660;2023-04-01T13:15:59;12.80;99.90
17341;DHT22;8788;49.930;8.660;2023-04-01T13:18:32;12.80;99.90
17341;DHT22;8788;49.930;8.660;2023-04-01T13:21:08;12.70;99.90
17341;DHT22;8788;49.930;8.660;2023-04-01T13:23:47;12.70;99.90
17341;DHT22;8788;49.930;8.660;2023-04-01T13:26:22;12.70;99.90
17341;DHT22;8788;49.930;8.660;2023-04-01T13:28:56;12.60;99.90
17341;DHT22;8788;49.930;8.660;2023-04-01T13:31:36;12.60;99.90
17341;DHT22;8788;49.930;8.660;2023-04-01T13:34:15;12.60;99.90
17341;DHT22;8788;49.930;8.660;2023-04-01T13:36:52;12.60;99.90
17341;DHT22;8788;49.930;8.660;2023-04-01T13:39:40;12.70;99.90
17341;DHT22;8788;49.930;8.660;2023-04-01T13:42:18;12.80;99.90
17341;DHT22;8788;49.930;8.660;2023-04-01T13:44:49;12.80;99.90
17341;DHT22;8788;49.930;8.660;2023-04-01T13:47:39;12.90;99.90
17341;DHT22;8788;49.930;8.660;2023-04-01T13:50:34;12.90;99.90
17341;DHT22;8788;49.930;8.660;2023-04-01T13:53:33;13.00;99.90
17341;DHT22;8788;49.930;8.660;2023-04-01T13:56:23;13.10;99.90
17341;DHT22;8788;49.930;8.660;2023-04-01T13:59:26;13.10;99.90
17341;DHT22;8788;49.930;8.660;2023-04-01T14:02:02;13.10;99.90
17341;DHT22;8788;49.930;8.660;2023-04-01T14:04:43;13.10;99.90
17341;DHT22;8788;49.930;8.660;2023-04-01T14:07:37;13.00;99.90
17341;DHT22;8788;49.930;8.660;2023-04-01T14:10:18;13.10;99.90
17341;DHT22;8788;49.930;8.660;2023-04-01T14:12:51;13.30;99.90
17341;DHT22;8788;49.930;8.660;2023-04-01T14:15:38;13.40;99.90
17341;DHT22;8788;49.930;8.660;2023-04-01T14:18:39;13.50;99.90
17341;DHT22;8788;49.930;8.660;2023-04-01T14:21:19;13.50;99.90
17341;DHT22;8788;49.930;8.660;2023-04-01T14:24:01;13.40;99.90
17341;DHT22;8788;49.930;8.660;2023-04-01T14:26:41;13.40;99.90
17341;DHT22;8788;49.930;8.660;2023-04-01T14:29:18;13.40;99.90
17341;DHT22;8788;49.930;8.660;2023-04-01T14:31:59;13.50;99.90
17341;DHT22;8788;49.930;8.660;2023-04-01T14:34:45;13.60;99.90
17341;DHT22;8788;49.930;8.660;2023-04-01T14:37:35;13.60;99.90
17341;DHT22;8788;49.930;8.660;2023-04-01T14:40:22;13.60;99.90
17341;DHT22;8788;49.930;8.660;2023-04-01T14:43:12;13.70;99.90
17341;DHT22;8788;49.930;8.660;2023-04-01T14:45:59;13.60;99.90
17341;DHT22;8788;49.930;8.660;2023-04-01T14:48:31;13.50;99.90
17341;DHT22;8788;49.930;8.660;2023-04-01T14:51:04;13.50;99.90
17341;DHT22;8788;49.930;8.660;2023-04-01T14:53:38;13.40;99.90
17341;DHT22;8788;49.930;8.660;2023-04-01T14:56:11;13.30;99.90
17341;DHT22;8788;49.930;8.660;2023-04-01T14:58:49;13.20;99.90
17341;DHT22;8788;49.930;8.660;2023-04-01T15:01:31;13.20;99.90
17341;DHT22;8788;49.930;8.660;2023-04-01T15:04:07;13.20;99.90
17341;DHT22;8788;49.930;8.660;2023-04-01T15:06:55;13.20;99.90
17341;DHT22;8788;49.930;8.660;2023-04-01T15:09:31;13.10;99.90
17341;DHT22;8788;49.930;8.660;2023-04-01T15:12:16;13.10;99.90
17341;DHT22;8788;49.930;8.660;2023-04-01T15:15:04;13.10;99.90
17341;DHT22;8788;49.930;8.660;2023-04-01T15:17:58;13.00;99.90
17341;DHT22;8788;49.930;8.660;2023-04-01T15:20:57;13.00;99.90
17341;DHT22;8788;49.930;8.660;2023-04-01T15:23:45;13.00;99.90
17341;DHT22;8788;49.930;8.660;2023-04-01T15:26:49;13.00;99.90
17341;DHT22;8788;49.930;8.660;2023-04-01T15:29:34;13.00;99.90
17341;DHT22;8788;49.930;8.660;2023-04-01T15:32:16;12.90;99.90
17341;DHT22;8788;49.930;8.660;2023-04-01T15:34:49;12.90;99.90
17341;DHT22;8788;49.930;8.660;2023-04-01T15:37:25;12.90;99.90
17341;DHT22;8788;49.930;8.660;2023-04-01T15:39:57;12.90;99.90
17341;DHT22;8788;49.930;8.660;2023-04-01T15:42:36;12.90;99.90
17341;DHT22;8788;49.930;8.660;2023-04-01T15:45:14;13.00;99.90
17341;DHT22;8788;49.930;8.660;2023-04-01T15:47:46;13.00;99.90
17341;DHT22;8788;49.930;8.660;2023-04-01T15:50:47;13.00;99.90
17341;DHT22;8788;49.930;8.660;2023-04-01T15:56:24;13.00;99.90
17341;DHT22;8788;49.930;8.660;2023-04-01T15:59:02;13.00;99.90
17341;DHT22;8788;49.930;8.660;2023-04-01T16:01:38;13.10;99.90
17341;DHT22;8788;49.930;8.660;2023-04-01T16:04:26;13.10;99.90
17341;DHT22;8788;49.930;8.660;2023-04-01T16:07:04;13.20;99.90
17341;DHT22;8788;49.930;8.660;2023-04-01T16:09:47;13.10;99.90
17341;DHT22;8788;49.930;8.660;2023-04-01T16:12:23;13.00;99.90
17341;DHT22;8788;49.930;8.660;2023-04-01T16:15:08;13.00;99.90
17341;DHT22;8788;49.930;8.660;2023-04-01T16:17:50;13.10;99.90
17341;DHT22;8788;49.930;8.660;2023-04-01T16:20:23;13.00;99.90
17341;DHT22;8788;49.930;8.660;2023-04-01T16:22:55;13.00;99.90
17341;DHT22;8788;49.930;8.660;2023-04-01T16:25:32;13.00;99.90
17341;DHT22;8788;49.930;8.660;2023-04-01T16:28:13;12.90;99.90
17341;DHT22;8788;49.930;8.660;2023-04-01T16:30:48;12.90;99.90
17341;DHT22;8788;49.930;8.660;2023-04-01T16:33:22;12.90;99.90
17341;DHT22;8788;49.930;8.660;2023-04-01T16:35:55;12.90;99.90
17341;DHT22;8788;49.930;8.660;2023-04-01T16:38:31;12.80;99.90
17341;DHT22;8788;49.930;8.660;2023-04-01T16:41:09;12.80;99.90
17341;DHT22;8788;49.930;8.660;2023-04-01T16:43:40;12.90;99.90
17341;DHT22;8788;49.930;8.660;2023-04-01T16:46:32;12.90;99.90
17341;DHT22;8788;49.930;8.660;2023-04-01T16:49:17;12.90;99.90
17341;DHT22;8788;49.930;8.660;2023-04-01T16:51:53;13.00;99.90
17341;DHT22;8788;49.930;8.660;2023-04-01T16:54:28;12.90;99.90
17341;DHT22;8788;49.930;8.660;2023-04-01T16:57:04;12.90;99.90
17341;DHT22;8788;49.930;8.660;2023-04-01T16:59:47;12.90;99.90
17341;DHT22;8788;49.930;8.660;2023-04-01T17:02:17;12.80;99.90
17341;DHT22;8788;49.930;8.660;2023-04-01T17:04:48;12.80;99.90
17341;DHT22;8788;49.930;8.660;2023-04-01T17:07:22;12.80;99.90
17341;DHT22;8788;49.930;8.660;2023-04-01T17:10:02;12.80;99.90
17341;DHT22;8788;49.930;8.660;2023-04-01T17:12:39;12.80;99.90
17341;DHT22;8788;49.930;8.660;2023-04-01T17:15:20;12.80;99.90
17341;DHT22;8788;49.930;8.660;2023-04-01T17:17:55;12.70;99.90
17341;DHT22;8788;49.930;8.660;2023-04-01T17:20:39;12.70;99.90
17341;DHT22;8788;49.930;8.660;2023-04-01T17:23:14;12.70;99.90
17341;DHT22;8788;49.930;8.660;2023-04-01T17:25:52;12.60;99.90
17341;DHT22;8788;49.930;8.660;2023-04-01T17:28:31;12.60;99.90
17341;DHT22;8788;49.930;8.660;2023-04-01T17:31:07;12.60;99.90
17341;DHT22;8788;49.930;8.660;2023-04-01T17:33:56;12.60;99.90
17341;DHT22;8788;49.930;8.660;2023-04-01T17:36:44;12.60;99.90
17341;DHT22;8788;49.930;8.660;2023-04-01T17:39:33;12.50;99.90
17341;DHT22;8788;49.930;8.660;2023-04-01T17:42:07;12.50;99.90
17341;DHT22;8788;49.930;8.660;2023-04-01T17:44:45;12.50;99.90
17341;DHT22;8788;49.930;8.660;2023-04-01T17:47:33;12.50;99.90
17341;DHT22;8788;49.930;8.660;2023-04-01T17:50:17;12.50;99.90
17341;DHT22;8788;49.930;8.660;2023-04-01T17:52:56;12.50;99.90
17341;DHT22;8788;49.930;8.660;2023-04-01T17:55:44;12.50;99.90
17341;DHT22;8788;49.930;8.660;2023-04-01T17:58:18;12.50;99.90
17341;DHT22;8788;49.930;8.660;2023-04-01T18:01:02;12.50;99.90
17341;DHT22;8788;49.930;8.660;2023-04-01T18:06:39;12.50;99.90
17341;DHT22;8788;49.930;8.660;2023-04-01T18:09:20;12.50;99.90
17341;DHT22;8788;49.930;8.660;2023-04-01T18:11:59;12.50;99.90
17341;DHT22;8788;49.930;8.660;2023-04-01T18:14:49;12.60;99.90
17341;DHT22;8788;49.930;8.660;2023-04-01T18:17:24;12.50;99.90
17341;DHT22;8788;49.930;8.660;2023-04-01T18:22:45;12.50;99.90
17341;DHT22;8788;49.930;8.660;2023-04-01T18:25:19;12.50;99.90